Time;durP1;ratioP1;P1;durP2;ratioP2;P2;SDS_P1;SDS_P2;PMS_P1;PMS_P2;Temp;Humidity;BMP_temperature;BMP_pressure;BME280_temperature;BME280_humidity;BME280_pressure;Samples;Min_cycle;Max_cycle;Signal;HPM_P1;HPM_P2
2021/07/15 00:00:18;;;;;;;;;;;21.40;82.70;;;;;;5047351;28;20016;-62
2021/07/15 00:02:44;;;;;;;;;;;21.50;82.90;;;;;;5032972;28;20389;-62
2021/07/15 00:05:11;;;;;;;;;;;21.40;82.90;;;;;;5032977;28;19917;-62
2021/07/15 00:07:38;;;;;;;;;;;21.40;83.00;;;;;;5031762;28;20012;-62
2021/07/15 00:10:07;;;;;;;;;;;21.50;83.10;;;;;;5033106;28;19917;-62
2021/07/15 00:12:33;;;;;;;;;;;21.50;83.10;;;;;;5032896;28;20391;-62
2021/07/15 00:15:01;;;;;;;;;;;21.50;83.10;;;;;;5033431;28;19935;-62
2021/07/15 00:17:27;;;;;;;;;;;21.50;83.20;;;;;;5032487;28;20397;-62
2021/07/15 00:19:52;;;;;;;;;;;21.50;83.10;;;;;;5033184;28;19928;-62
2021/07/15 00:22:18;;;;;;;;;;;21.50;83.00;;;;;;5032163;28;19917;-62
2021/07/15 00:24:43;;;;;;;;;;;21.50;83.10;;;;;;5033091;28;19917;-62
2021/07/15 00:27:09;;;;;;;;;;;21.40;83.20;;;;;;5032843;28;19917;-62
2021/07/15 00:29:36;;;;;;;;;;;21.40;83.40;;;;;;5031254;28;19917;-62
2021/07/15 00:32:01;;;;;;;;;;;21.30;83.50;;;;;;5032375;28;20035;-62
2021/07/15 00:34:27;;;;;;;;;;;21.30;83.60;;;;;;5032447;28;19980;-62
2021/07/15 00:36:53;;;;;;;;;;;21.30;83.80;;;;;;5030756;28;19917;-62
2021/07/15 00:39:18;;;;;;;;;;;21.30;83.80;;;;;;5033013;28;19924;-62
2021/07/15 00:41:44;;;;;;;;;;;21.30;83.70;;;;;;5015086;28;20012;-62
2021/07/15 00:44:09;;;;;;;;;;;21.20;83.60;;;;;;5032995;28;20385;-62
2021/07/15 00:46:35;;;;;;;;;;;21.20;83.70;;;;;;5033136;28;19917;-62
2021/07/15 00:49:00;;;;;;;;;;;21.10;83.70;;;;;;5032464;28;19917;-62
2021/07/15 00:51:29;;;;;;;;;;;21.00;83.90;;;;;;5032803;28;19979;-62
2021/07/15 00:53:55;;;;;;;;;;;20.90;84.00;;;;;;5032899;28;19921;-62
2021/07/15 00:56:21;;;;;;;;;;;20.90;84.10;;;;;;5032564;28;19917;-62
2021/07/15 00:58:46;;;;;;;;;;;20.80;84.10;;;;;;5032713;28;20293;-62
2021/07/15 01:01:12;;;;;;;;;;;20.80;84.30;;;;;;5031148;28;19917;-62
2021/07/15 01:03:38;;;;;;;;;;;20.70;84.40;;;;;;5032734;28;19918;-62
2021/07/15 01:06:04;;;;;;;;;;;20.60;84.50;;;;;;5032666;28;19917;-62
2021/07/15 01:08:29;;;;;;;;;;;20.60;84.70;;;;;;5031999;28;19944;-62
2021/07/15 01:10:58;;;;;;;;;;;20.50;84.90;;;;;;5031324;28;19924;-62
2021/07/15 01:13:36;;;;;;;;;;;20.50;85.00;;;;;;5031335;28;20605;-63
2021/07/15 01:16:02;;;;;;;;;;;20.50;85.10;;;;;;5031166;28;19918;-62
2021/07/15 01:18:35;;;;;;;;;;;20.50;85.20;;;;;;5030893;28;19921;-62
2021/07/15 01:21:01;;;;;;;;;;;20.40;85.30;;;;;;5032137;28;19952;-62
2021/07/15 01:23:59;;;;;;;;;;;20.40;85.40;;;;;;5031199;28;19987;-62
2021/07/15 01:26:27;;;;;;;;;;;20.40;85.50;;;;;;5031836;28;19917;-62
2021/07/15 01:29:02;;;;;;;;;;;20.30;85.60;;;;;;5031963;28;19917;-62
2021/07/15 01:31:29;;;;;;;;;;;20.30;85.90;;;;;;5030586;28;19959;-62
2021/07/15 01:33:55;;;;;;;;;;;20.30;86.10;;;;;;5032077;28;19923;-62
2021/07/15 01:36:22;;;;;;;;;;;20.30;86.20;;;;;;5032200;28;19967;-62
2021/07/15 01:38:54;;;;;;;;;;;20.40;86.40;;;;;;5030141;28;20013;-62
2021/07/15 01:41:29;;;;;;;;;;;20.40;86.70;;;;;;5032192;28;19918;-62
2021/07/15 01:43:57;;;;;;;;;;;20.50;86.80;;;;;;5030213;28;20035;-63
2021/07/15 01:46:23;;;;;;;;;;;20.50;86.70;;;;;;5032111;28;20428;-62
2021/07/15 01:48:48;;;;;;;;;;;20.60;86.80;;;;;;5031321;28;19914;-62
2021/07/15 01:51:14;;;;;;;;;;;20.60;86.80;;;;;;5031885;28;20297;-62
2021/07/15 01:53:40;;;;;;;;;;;20.70;86.70;;;;;;5030590;28;20369;-62
2021/07/15 01:56:07;;;;;;;;;;;20.70;86.70;;;;;;5030205;28;19917;-62
2021/07/15 01:58:34;;;;;;;;;;;20.80;86.70;;;;;;5031534;28;19953;-62
2021/07/15 02:01:00;;;;;;;;;;;20.70;86.70;;;;;;5031794;28;19944;-62
2021/07/15 02:03:27;;;;;;;;;;;20.80;86.70;;;;;;5030105;28;19971;-62
2021/07/15 02:05:53;;;;;;;;;;;20.80;86.60;;;;;;5031773;28;19917;-62
2021/07/15 02:08:19;;;;;;;;;;;20.80;86.70;;;;;;5031085;28;19928;-62
2021/07/15 02:10:45;;;;;;;;;;;20.80;86.70;;;;;;5030485;28;19940;-62
2021/07/15 02:13:10;;;;;;;;;;;20.80;86.60;;;;;;5031539;28;20378;-62
2021/07/15 02:15:37;;;;;;;;;;;20.80;86.60;;;;;;5031248;28;19917;-62
2021/07/15 02:18:02;;;;;;;;;;;20.90;86.50;;;;;;5031247;28;20317;-62
2021/07/15 02:20:29;;;;;;;;;;;20.80;86.30;;;;;;5030253;28;19918;-62
2021/07/15 02:22:56;;;;;;;;;;;20.80;86.40;;;;;;5031075;28;19917;-62
2021/07/15 02:25:22;;;;;;;;;;;20.80;86.50;;;;;;5029881;28;20397;-62
2021/07/15 02:27:49;;;;;;;;;;;20.80;86.50;;;;;;5030783;28;19921;-62
2021/07/15 02:30:16;;;;;;;;;;;20.80;86.50;;;;;;5031395;28;19917;-62
2021/07/15 02:32:49;;;;;;;;;;;20.80;86.40;;;;;;5031406;28;20000;-62
2021/07/15 02:35:18;;;;;;;;;;;20.80;86.30;;;;;;5031175;28;19939;-62
2021/07/15 02:37:44;;;;;;;;;;;20.80;86.30;;;;;;5029780;28;20000;-62
2021/07/15 02:40:11;;;;;;;;;;;20.80;86.30;;;;;;5031037;28;19952;-62
2021/07/15 02:42:40;;;;;;;;;;;20.80;86.30;;;;;;5031179;28;20270;-62
2021/07/15 02:45:07;;;;;;;;;;;20.80;86.30;;;;;;5029743;28;19917;-62
2021/07/15 02:47:33;;;;;;;;;;;20.80;86.30;;;;;;5030858;28;19945;-62
2021/07/15 02:49:58;;;;;;;;;;;20.80;86.30;;;;;;5031292;28;19952;-62
2021/07/15 02:52:24;;;;;;;;;;;20.80;86.20;;;;;;5030914;28;20345;-62
2021/07/15 02:54:50;;;;;;;;;;;20.80;86.20;;;;;;5031218;28;19917;-62
2021/07/15 02:57:35;;;;;;;;;;;20.80;86.10;;;;;;5030937;28;20336;-62
2021/07/15 03:00:06;;;;;;;;;;;20.80;86.00;;;;;;5030887;28;19967;-62
2021/07/15 03:02:34;;;;;;;;;;;20.80;85.90;;;;;;5029843;28;19924;-62
2021/07/15 03:05:02;;;;;;;;;;;20.80;86.00;;;;;;5030724;28;20366;-62
2021/07/15 03:07:28;;;;;;;;;;;20.80;85.90;;;;;;5029565;28;20069;-62
2021/07/15 03:09:55;;;;;;;;;;;20.80;85.80;;;;;;5030723;28;19963;-62
2021/07/15 03:12:22;;;;;;;;;;;20.80;85.90;;;;;;5030888;28;19987;-62
2021/07/15 03:14:48;;;;;;;;;;;20.70;85.80;;;;;;5030766;28;20400;-62
2021/07/15 03:17:15;;;;;;;;;;;20.70;85.80;;;;;;5030327;28;19949;-62
2021/07/15 03:19:46;;;;;;;;;;;20.70;85.90;;;;;;5031117;28;19917;-62
2021/07/15 03:22:11;;;;;;;;;;;20.70;85.90;;;;;;5030642;28;19921;-62
2021/07/15 03:24:49;;;;;;;;;;;20.60;85.80;;;;;;5029772;28;20381;-62
2021/07/15 03:27:15;;;;;;;;;;;20.60;85.90;;;;;;5030312;28;20382;-62
2021/07/15 03:29:42;;;;;;;;;;;20.70;85.90;;;;;;5031073;28;20362;-62
2021/07/15 03:32:08;;;;;;;;;;;20.70;85.90;;;;;;5030735;28;19925;-62
2021/07/15 03:34:35;;;;;;;;;;;20.70;85.80;;;;;;5030526;28;19972;-62
2021/07/15 03:37:01;;;;;;;;;;;20.70;85.80;;;;;;5032840;28;20385;-62
2021/07/15 03:39:27;;;;;;;;;;;20.70;85.70;;;;;;5034374;28;19917;-62
2021/07/15 03:41:53;;;;;;;;;;;20.70;85.80;;;;;;5032510;28;19925;-62
2021/07/15 03:44:19;;;;;;;;;;;20.70;85.90;;;;;;5034343;28;20028;-62
2021/07/15 03:46:45;;;;;;;;;;;20.70;85.80;;;;;;5033539;28;19920;-62
2021/07/15 03:49:14;;;;;;;;;;;20.70;85.80;;;;;;5034110;28;19917;-62
2021/07/15 03:51:39;;;;;;;;;;;20.70;85.70;;;;;;5034112;28;20266;-62
2021/07/15 03:54:05;;;;;;;;;;;20.70;85.70;;;;;;5033554;28;19971;-62
2021/07/15 03:56:31;;;;;;;;;;;20.70;85.70;;;;;;5034038;28;19921;-62
2021/07/15 03:59:00;;;;;;;;;;;20.70;85.70;;;;;;5032401;28;19979;-62
2021/07/15 04:01:30;;;;;;;;;;;20.70;85.70;;;;;;5033638;28;20274;-62
2021/07/15 04:03:55;;;;;;;;;;;20.70;85.70;;;;;;5033843;28;19996;-62
2021/07/15 04:06:22;;;;;;;;;;;20.70;85.60;;;;;;5032456;28;19963;-62
2021/07/15 04:08:48;;;;;;;;;;;20.70;85.60;;;;;;5033160;28;19928;-62
2021/07/15 04:11:15;;;;;;;;;;;20.70;85.70;;;;;;5033718;28;19943;-62
2021/07/15 04:13:43;;;;;;;;;;;20.70;85.70;;;;;;5031807;28;19921;-62
2021/07/15 04:16:13;;;;;;;;;;;20.80;85.70;;;;;;5033497;28;20393;-62
2021/07/15 04:18:41;;;;;;;;;;;20.80;85.70;;;;;;5032988;28;20006;-62
2021/07/15 04:21:07;;;;;;;;;;;20.80;85.70;;;;;;5033743;28;19917;-62
2021/07/15 04:23:34;;;;;;;;;;;20.80;85.60;;;;;;5033152;28;20016;-62
2021/07/15 04:26:00;;;;;;;;;;;20.80;85.60;;;;;;5033519;28;19917;-62
2021/07/15 04:28:26;;;;;;;;;;;20.90;85.60;;;;;;5033200;28;19940;-62
2021/07/15 04:30:57;;;;;;;;;;;20.90;85.50;;;;;;5032981;28;19913;-62
2021/07/15 04:33:24;;;;;;;;;;;20.90;85.30;;;;;;5033154;28;19921;-62
2021/07/15 04:35:50;;;;;;;;;;;20.90;85.30;;;;;;5032956;28;19917;-62
2021/07/15 04:38:15;;;;;;;;;;;21.00;85.30;;;;;;5032908;28;20007;-62
2021/07/15 04:40:41;;;;;;;;;;;21.10;85.90;;;;;;5033148;28;19969;-62
2021/07/15 04:43:09;;;;;;;;;;;21.10;85.10;;;;;;5031214;28;20377;-62
2021/07/15 04:45:38;;;;;;;;;;;21.20;85.10;;;;;;5032777;28;19917;-62
2021/07/15 04:48:04;;;;;;;;;;;21.30;85.00;;;;;;5032210;28;19923;-62
2021/07/15 04:50:33;;;;;;;;;;;21.40;84.60;;;;;;5033189;28;19921;-62
2021/07/15 04:53:06;;;;;;;;;;;21.40;84.50;;;;;;5032856;28;19936;-62
2021/07/15 04:55:32;;;;;;;;;;;21.40;84.30;;;;;;5032521;28;19924;-62
2021/07/15 04:58:00;;;;;;;;;;;21.50;84.10;;;;;;5032611;28;19921;-62
2021/07/15 05:00:26;;;;;;;;;;;21.50;83.90;;;;;;5032817;28;19921;-62
2021/07/15 05:03:00;;;;;;;;;;;21.50;83.80;;;;;;5032433;28;19917;-62
2021/07/15 05:05:28;;;;;;;;;;;21.50;83.60;;;;;;5032571;28;20460;-62
2021/07/15 05:07:54;;;;;;;;;;;21.60;83.50;;;;;;5031919;28;19928;-62
2021/07/15 05:10:20;;;;;;;;;;;21.70;83.50;;;;;;5031328;28;19917;-62
2021/07/15 05:12:45;;;;;;;;;;;21.80;83.70;;;;;;5032452;28;19921;-62
2021/07/15 05:15:11;;;;;;;;;;;21.90;84.20;;;;;;5032047;28;19917;-62
2021/07/15 05:17:37;;;;;;;;;;;22.10;83.60;;;;;;5032203;28;19966;-62
2021/07/15 05:20:04;;;;;;;;;;;22.20;83.40;;;;;;5031990;28;19996;-62
2021/07/15 05:22:30;;;;;;;;;;;22.40;83.30;;;;;;5032385;28;19982;-62
2021/07/15 05:24:56;;;;;;;;;;;22.60;82.80;;;;;;5032272;28;20369;-62
2021/07/15 05:27:21;;;;;;;;;;;22.70;82.30;;;;;;5013798;28;19923;-62
2021/07/15 05:29:47;;;;;;;;;;;22.80;81.80;;;;;;5032199;28;20000;-62
2021/07/15 05:32:12;;;;;;;;;;;22.90;81.20;;;;;;5030612;28;20377;-62
2021/07/15 05:34:38;;;;;;;;;;;22.90;80.60;;;;;;5031657;28;19928;-62
2021/07/15 05:37:03;;;;;;;;;;;23.00;80.60;;;;;;5031908;28;20018;-62
2021/07/15 05:39:30;;;;;;;;;;;23.10;80.80;;;;;;5031601;28;19918;-62
2021/07/15 05:41:55;;;;;;;;;;;23.40;80.70;;;;;;5031870;28;19924;-62
2021/07/15 05:44:21;;;;;;;;;;;23.60;80.90;;;;;;5066277;22;19925;-63
2021/07/15 05:46:47;;;;;;;;;;;23.70;79.40;;;;;;5049928;28;19917;-64
2021/07/15 05:49:12;;;;;;;;;;;23.80;78.70;;;;;;5051814;28;19966;-63
2021/07/15 05:51:38;;;;;;;;;;;23.90;78.70;;;;;;5051787;28;19944;-63
2021/07/15 05:54:03;;;;;;;;;;;24.10;78.40;;;;;;5039863;28;19929;-64
2021/07/15 05:56:29;;;;;;;;;;;24.30;78.20;;;;;;5031799;28;20005;-62
2021/07/15 05:58:55;;;;;;;;;;;24.60;78.90;;;;;;5030521;28;20334;-63
2021/07/15 06:01:21;;;;;;;;;;;24.90;78.30;;;;;;5030152;28;19992;-62
2021/07/15 06:03:47;;;;;;;;;;;25.10;76.90;;;;;;5030158;28;20020;-63
2021/07/15 06:06:12;;;;;;;;;;;25.00;76.30;;;;;;5029562;28;19924;-63
2021/07/15 06:08:38;;;;;;;;;;;25.10;75.10;;;;;;5030640;28;19917;-63
2021/07/15 06:11:03;;;;;;;;;;;25.00;74.30;;;;;;5031019;28;20403;-63
2021/07/15 06:13:29;;;;;;;;;;;25.00;74.30;;;;;;5031436;28;19924;-63
2021/07/15 06:15:54;;;;;;;;;;;25.00;74.00;;;;;;5030029;28;20332;-63
2021/07/15 06:18:20;;;;;;;;;;;25.10;73.90;;;;;;5030232;28;19924;-63
2021/07/15 06:20:46;;;;;;;;;;;25.40;74.50;;;;;;5030971;28;19927;-63
2021/07/15 06:23:11;;;;;;;;;;;25.90;74.70;;;;;;5031226;28;19921;-63
2021/07/15 06:25:37;;;;;;;;;;;26.80;76.70;;;;;;5030812;28;19921;-63
2021/07/15 06:28:02;;;;;;;;;;;28.40;77.60;;;;;;5029116;28;20410;-63
2021/07/15 06:30:28;;;;;;;;;;;29.70;74.00;;;;;;5030818;28;19917;-64
2021/07/15 06:32:54;;;;;;;;;;;30.80;72.30;;;;;;5030888;28;19925;-63
2021/07/15 06:35:21;;;;;;;;;;;32.10;70.20;;;;;;5029935;28;19918;-63
2021/07/15 06:37:49;;;;;;;;;;;33.30;67.20;;;;;;5027687;28;20270;-64
2021/07/15 06:40:14;;;;;;;;;;;34.30;63.60;;;;;;5030005;28;19918;-63
2021/07/15 06:42:40;;;;;;;;;;;35.00;60.70;;;;;;5031113;28;19940;-63
2021/07/15 06:45:07;;;;;;;;;;;35.80;58.10;;;;;;5030415;28;19921;-64
2021/07/15 06:47:32;;;;;;;;;;;36.30;56.10;;;;;;5030177;28;20343;-63
2021/07/15 06:49:58;;;;;;;;;;;36.60;53.10;;;;;;5030828;28;20004;-64
2021/07/15 06:52:26;;;;;;;;;;;36.20;50.20;;;;;;5029311;28;19944;-64
2021/07/15 06:54:53;;;;;;;;;;;35.60;48.80;;;;;;5026663;28;20022;-64
2021/07/15 06:57:19;;;;;;;;;;;34.10;47.20;;;;;;5019971;28;20063;-63
2021/07/15 06:59:44;;;;;;;;;;;32.50;48.30;;;;;;5030966;28;20015;-63
2021/07/15 07:02:10;;;;;;;;;;;31.40;49.40;;;;;;5030775;28;19996;-62
2021/07/15 07:04:35;;;;;;;;;;;30.60;50.70;;;;;;5028422;28;19971;-64
2021/07/15 07:07:01;;;;;;;;;;;30.20;51.50;;;;;;5028551;28;19960;-63
2021/07/15 07:09:27;;;;;;;;;;;30.10;53.50;;;;;;5028058;28;20339;-64
2021/07/15 07:11:52;;;;;;;;;;;30.30;53.70;;;;;;5030169;28;19921;-66
2021/07/15 07:14:18;;;;;;;;;;;30.70;54.50;;;;;;5032885;28;19925;-64
2021/07/15 07:16:43;;;;;;;;;;;32.20;56.40;;;;;;5031944;28;20595;-65
2021/07/15 07:19:09;;;;;;;;;;;33.30;53.20;;;;;;5034467;28;20342;-64
2021/07/15 07:21:35;;;;;;;;;;;33.20;50.30;;;;;;5034266;28;19924;-65
2021/07/15 07:24:00;;;;;;;;;;;33.90;52.60;;;;;;5034001;28;20359;-65
2021/07/15 07:26:27;;;;;;;;;;;34.40;49.90;;;;;;5033019;28;19996;-64
2021/07/15 07:28:52;;;;;;;;;;;33.70;47.90;;;;;;5033875;28;19941;-64
2021/07/15 07:31:18;;;;;;;;;;;32.70;47.40;;;;;;5034082;28;19948;-64
2021/07/15 07:33:43;;;;;;;;;;;31.80;48.00;;;;;;5036292;28;19928;-64
2021/07/15 07:36:09;;;;;;;;;;;31.10;48.70;;;;;;5033985;28;19959;-64
2021/07/15 07:38:34;;;;;;;;;;;30.90;50.80;;;;;;5032328;28;19921;-64
2021/07/15 07:41:00;;;;;;;;;;;32.20;54.10;;;;;;5034251;28;19921;-65
2021/07/15 07:43:26;;;;;;;;;;;34.80;55.10;;;;;;5032100;28;19968;-65
2021/07/15 07:45:52;;;;;;;;;;;37.40;51.60;;;;;;5049734;28;19917;-65
2021/07/15 07:48:17;;;;;;;;;;;38.00;45.80;;;;;;5033278;28;19917;-65
2021/07/15 07:50:43;;;;;;;;;;;36.90;42.80;;;;;;5032537;28;19917;-64
2021/07/15 07:53:09;;;;;;;;;;;35.80;43.30;;;;;;5033955;28;19970;-64
2021/07/15 07:55:34;;;;;;;;;;;36.90;46.60;;;;;;5033959;28;19952;-65
2021/07/15 07:58:00;;;;;;;;;;;38.50;44.20;;;;;;5032711;28;20450;-65
2021/07/15 08:00:25;;;;;;;;;;;40.10;43.90;;;;;;5033843;28;20447;-65
2021/07/15 08:02:51;;;;;;;;;;;42.10;42.10;;;;;;5033564;28;19924;-65
2021/07/15 08:05:20;;;;;;;;;;;41.80;37.30;;;;;;5034135;28;19952;-64
2021/07/15 08:07:46;;;;;;;;;;;40.20;36.10;;;;;;5032877;28;20381;-64
2021/07/15 08:10:12;;;;;;;;;;;38.00;35.90;;;;;;5033373;28;19917;-63
2021/07/15 08:12:38;;;;;;;;;;;35.90;37.10;;;;;;5033410;28;19924;-64
2021/07/15 08:15:05;;;;;;;;;;;34.30;38.60;;;;;;5033454;28;19927;-64
2021/07/15 08:17:31;;;;;;;;;;;33.00;39.90;;;;;;5014664;28;19917;-63
2021/07/15 08:19:56;;;;;;;;;;;32.00;41.30;;;;;;5033777;28;19928;-64
2021/07/15 08:22:22;;;;;;;;;;;31.20;42.40;;;;;;5014251;28;19925;-64
2021/07/15 08:24:48;;;;;;;;;;;30.60;43.60;;;;;;5033297;28;19917;-63
2021/07/15 08:27:13;;;;;;;;;;;31.20;48.00;;;;;;5032898;28;19924;-64
2021/07/15 08:29:39;;;;;;;;;;;31.90;46.50;;;;;;5032863;28;19924;-65
2021/07/15 08:32:06;;;;;;;;;;;32.00;45.60;;;;;;5033387;28;19922;-64
2021/07/15 08:34:31;;;;;;;;;;;31.80;45.40;;;;;;5030938;28;19947;-64
2021/07/15 08:36:57;;;;;;;;;;;31.70;46.00;;;;;;5031298;28;19917;-64
2021/07/15 08:39:23;;;;;;;;;;;31.80;45.60;;;;;;5033134;28;19917;-64
2021/07/15 08:41:49;;;;;;;;;;;32.10;46.10;;;;;;5031600;28;19918;-65
2021/07/15 08:44:16;;;;;;;;;;;34.30;49.50;;;;;;5031273;28;20020;-66
2021/07/15 08:46:47;;;;;;;;;;;37.90;48.30;;;;;;5031237;28;19971;-65
2021/07/15 08:49:15;;;;;;;;;;;41.10;44.50;;;;;;5032247;28;20008;-66
2021/07/15 08:51:42;;;;;;;;;;;43.90;40.20;;;;;;5032956;28;19924;-66
2021/07/15 08:54:12;;;;;;;;;;;45.80;36.20;;;;;;5032178;28;19923;-65
2021/07/15 08:56:38;;;;;;;;;;;46.80;33.20;;;;;;5027765;28;19917;-63
2021/07/15 08:59:08;;;;;;;;;;;45.40;30.40;;;;;;5031965;28;19924;-62
2021/07/15 09:01:34;;;;;;;;;;;42.50;30.40;;;;;;5032324;28;19924;-61
2021/07/15 09:04:01;;;;;;;;;;;39.70;31.50;;;;;;5033295;28;20007;-62
2021/07/15 09:06:26;;;;;;;;;;;37.70;33.20;;;;;;5022555;28;20385;-62
2021/07/15 09:08:53;;;;;;;;;;;36.20;34.70;;;;;;5033353;28;19924;-62
2021/07/15 09:11:19;;;;;;;;;;;35.30;35.90;;;;;;5031103;28;20409;-63
2021/07/15 09:13:44;;;;;;;;;;;34.60;37.30;;;;;;5030950;28;19956;-65
2021/07/15 09:16:14;;;;;;;;;;;35.70;40.80;;;;;;5030317;28;19924;-66
2021/07/15 09:18:59;;;;;;;;;;;38.90;41.20;;;;;;5030845;28;19917;-66
2021/07/15 09:21:30;;;;;;;;;;;41.60;37.10;;;;;;5031611;28;19921;-66
2021/07/15 09:23:56;;;;;;;;;;;42.80;34.20;;;;;;5030338;28;19917;-66
2021/07/15 09:26:22;;;;;;;;;;;43.70;32.90;;;;;;5029433;28;19917;-66
2021/07/15 09:28:47;;;;;;;;;;;42.80;31.50;;;;;;5031706;28;20458;-65
2021/07/15 09:31:14;;;;;;;;;;;41.70;31.40;;;;;;5031823;28;19964;-65
2021/07/15 09:33:40;;;;;;;;;;;41.20;31.70;;;;;;5030977;28;20448;-65
2021/07/15 09:36:16;;;;;;;;;;;41.00;31.80;;;;;;5027796;28;20353;-65
2021/07/15 09:38:42;;;;;;;;;;;40.30;31.60;;;;;;5026153;28;19955;-65
2021/07/15 09:41:08;;;;;;;;;;;40.20;32.90;;;;;;5029056;28;19923;-64
2021/07/15 09:43:38;;;;;;;;;;;41.00;33.00;;;;;;5030752;28;19921;-66
2021/07/15 09:46:12;;;;;;;;;;;40.30;31.40;;;;;;5030932;28;19917;-67
2021/07/15 09:48:39;;;;;;;;;;;38.70;32.10;;;;;;5031244;28;19986;-66
2021/07/15 09:51:07;;;;;;;;;;;38.90;35.60;;;;;;5031749;28;19936;-65
2021/07/15 09:53:36;;;;;;;;;;;41.00;34.80;;;;;;5029190;28;19933;-64
2021/07/15 09:56:01;;;;;;;;;;;40.70;32.20;;;;;;5031463;28;20377;-65
2021/07/15 09:58:34;;;;;;;;;;;39.20;31.60;;;;;;5028803;28;19917;-64
2021/07/15 10:01:04;;;;;;;;;;;37.40;32.70;;;;;;5027774;28;20385;-64
2021/07/15 10:03:32;;;;;;;;;;;36.40;35.10;;;;;;5031377;28;19917;-65
2021/07/15 10:06:02;;;;;;;;;;;38.90;37.90;;;;;;5030981;28;20314;-64
2021/07/15 10:08:28;;;;;;;;;;;41.30;35.10;;;;;;5027546;28;20396;-65
2021/07/15 10:10:55;;;;;;;;;;;40.90;32.00;;;;;;5031410;28;20067;-65
2021/07/15 10:13:22;;;;;;;;;;;39.60;31.90;;;;;;5029196;28;19933;-65
2021/07/15 10:15:48;;;;;;;;;;;38.40;32.40;;;;;;5027721;28;19932;-64
2021/07/15 10:18:33;;;;;;;;;;;37.30;33.10;;;;;;5020669;28;19927;-63
2021/07/15 10:20:58;;;;;;;;;;;37.60;35.30;;;;;;5014112;28;20290;-65
2021/07/15 10:23:31;;;;;;;;;;;37.50;34.50;;;;;;5018619;28;20011;-64
2021/07/15 10:25:58;;;;;;;;;;;37.50;34.60;;;;;;5035177;28;20070;-66
2021/07/15 10:28:24;;;;;;;;;;;38.90;36.20;;;;;;5028505;28;19948;-65
2021/07/15 10:30:50;;;;;;;;;;;41.30;35.10;;;;;;5030043;28;19913;-66
2021/07/15 10:33:16;;;;;;;;;;;43.80;33.80;;;;;;5028181;28;20425;-66
2021/07/15 10:35:43;;;;;;;;;;;46.10;31.80;;;;;;5027583;28;19917;-66
2021/07/15 10:38:08;;;;;;;;;;;47.90;29.90;;;;;;5030192;28;19955;-66
2021/07/15 10:40:34;;;;;;;;;;;48.70;28.60;;;;;;5030416;28;19964;-66
2021/07/15 10:43:00;;;;;;;;;;;49.50;28.10;;;;;;5029766;28;19967;-66
2021/07/15 10:45:25;;;;;;;;;;;49.30;27.10;;;;;;5032399;28;20011;-66
2021/07/15 10:47:55;;;;;;;;;;;47.90;26.70;;;;;;5034116;28;19940;-64
2021/07/15 10:50:21;;;;;;;;;;;46.60;26.90;;;;;;5027716;28;19925;-66
2021/07/15 10:52:47;;;;;;;;;;;44.20;27.30;;;;;;5033129;28;19925;-66
2021/07/15 10:55:13;;;;;;;;;;;42.00;28.10;;;;;;5033909;28;19924;-65
2021/07/15 10:57:39;;;;;;;;;;;39.70;29.20;;;;;;5038363;28;20273;-61
2021/07/15 11:00:20;;;;;;;;;;;38.10;30.60;;;;;;5042644;28;19928;-63
2021/07/15 11:02:45;;;;;;;;;;;37.30;32.60;;;;;;5040013;28;19978;-63
2021/07/15 11:05:29;;;;;;;;;;;39.10;34.90;;;;;;5042355;28;19921;-64
2021/07/15 11:07:54;;;;;;;;;;;41.70;34.40;;;;;;5038381;28;20357;-64
2021/07/15 11:10:23;;;;;;;;;;;43.30;31.40;;;;;;5043099;28;19925;-64
2021/07/15 11:13:05;;;;;;;;;;;43.70;30.70;;;;;;5042365;28;19921;-63
2021/07/15 11:15:52;;;;;;;;;;;44.00;30.00;;;;;;5020778;28;19924;-64
2021/07/15 11:18:37;;;;;;;;;;;45.30;30.40;;;;;;5046113;28;19916;-64
2021/07/15 11:21:38;;;;;;;;;;;47.40;29.70;;;;;;5054219;28;19917;-64
2021/07/15 11:24:03;;;;;;;;;;;47.30;28.20;;;;;;4953023;28;19950;-63
2021/07/15 11:26:32;;;;;;;;;;;44.40;27.90;;;;;;5035962;28;19967;-64
2021/07/15 11:28:58;;;;;;;;;;;41.90;28.90;;;;;;5051896;28;19959;-63
2021/07/15 11:31:42;;;;;;;;;;;39.70;30.00;;;;;;5049819;28;20365;-64
2021/07/15 11:34:08;;;;;;;;;;;38.30;32.20;;;;;;5037433;28;19925;-65
2021/07/15 11:36:35;;;;;;;;;;;37.30;33.20;;;;;;5033088;28;20265;-64
2021/07/15 11:39:04;;;;;;;;;;;36.40;34.00;;;;;;5025502;28;19928;-63
2021/07/15 11:41:48;;;;;;;;;;;35.50;34.90;;;;;;5027190;28;19922;-63
2021/07/15 11:44:16;;;;;;;;;;;35.20;36.10;;;;;;5054329;22;19935;-59
2021/07/15 11:46:42;;;;;;;;;;;35.00;36.40;;;;;;5048708;28;19925;-60
2021/07/15 11:49:29;;;;;;;;;;;35.00;37.50;;;;;;5041309;28;19921;-59
2021/07/15 11:51:58;;;;;;;;;;;35.50;37.80;;;;;;5033570;28;19921;-60
2021/07/15 11:54:24;;;;;;;;;;;36.10;37.50;;;;;;5025787;28;19964;-60
2021/07/15 11:56:54;;;;;;;;;;;36.70;37.40;;;;;;5023240;28;20015;-60
2021/07/15 11:59:32;;;;;;;;;;;36.80;36.70;;;;;;5030279;28;19933;-60
2021/07/15 12:02:03;;;;;;;;;;;36.50;36.40;;;;;;5032715;28;19917;-59
2021/07/15 12:04:49;;;;;;;;;;;36.00;36.90;;;;;;5031444;28;20304;-60
2021/07/15 12:07:18;;;;;;;;;;;35.40;37.30;;;;;;5025592;28;20016;-60
2021/07/15 12:09:45;;;;;;;;;;;34.60;38.10;;;;;;5032709;28;19917;-63
2021/07/15 12:12:11;;;;;;;;;;;34.20;39.30;;;;;;5032167;28;19917;-63
2021/07/15 12:14:38;;;;;;;;;;;34.30;40.30;;;;;;5033120;28;19983;-63
2021/07/15 12:17:03;;;;;;;;;;;34.90;40.30;;;;;;5027818;28;19929;-63
2021/07/15 12:19:29;;;;;;;;;;;35.60;39.60;;;;;;5025613;28;19944;-63
2021/07/15 12:21:57;;;;;;;;;;;35.90;39.50;;;;;;5024152;28;19977;-63
2021/07/15 12:24:23;;;;;;;;;;;36.10;39.10;;;;;;5031399;28;19921;-63
2021/07/15 12:26:52;;;;;;;;;;;36.00;39.00;;;;;;5031686;28;20338;-62
2021/07/15 12:29:18;;;;;;;;;;;35.70;39.20;;;;;;5031452;28;19917;-64
2021/07/15 12:31:43;;;;;;;;;;;35.20;38.80;;;;;;5013934;28;19921;-63
2021/07/15 12:34:10;;;;;;;;;;;34.50;39.30;;;;;;5028707;28;19929;-62
2021/07/15 12:36:38;;;;;;;;;;;33.80;40.10;;;;;;5029854;28;20493;-61
2021/07/15 12:39:06;;;;;;;;;;;33.50;41.00;;;;;;5029757;28;19929;-61
2021/07/15 12:41:33;;;;;;;;;;;33.20;41.40;;;;;;5032276;28;19918;-60
2021/07/15 12:44:04;;;;;;;;;;;33.00;41.40;;;;;;5030970;28;19999;-60
2021/07/15 12:46:31;;;;;;;;;;;32.80;41.20;;;;;;5032505;28;20266;-60
2021/07/15 12:48:57;;;;;;;;;;;32.60;41.40;;;;;;5030421;28;19921;-60
2021/07/15 12:51:27;;;;;;;;;;;32.70;41.40;;;;;;5032289;28;19924;-62
2021/07/15 12:53:53;;;;;;;;;;;32.70;41.50;;;;;;5031254;28;20493;-59
2021/07/15 12:56:20;;;;;;;;;;;32.70;42.20;;;;;;5031607;28;20377;-59
2021/07/15 12:58:59;;;;;;;;;;;32.60;42.60;;;;;;5031196;28;20385;-61
2021/07/15 13:01:25;;;;;;;;;;;32.50;42.70;;;;;;5031588;28;19932;-59
2021/07/15 13:04:04;;;;;;;;;;;32.10;43.30;;;;;;5013705;28;19948;-60
2021/07/15 13:06:31;;;;;;;;;;;31.80;44.10;;;;;;5031782;28;19963;-60
2021/07/15 13:09:04;;;;;;;;;;;31.60;45.10;;;;;;5031772;28;19948;-60
2021/07/15 13:14:16;;;;;;;;;;;31.70;45.70;;;;;;5031400;28;19927;-60
2021/07/15 13:16:47;;;;;;;;;;;31.80;46.20;;;;;;5031033;28;19964;-60
2021/07/15 13:19:13;;;;;;;;;;;31.80;45.50;;;;;;5031297;28;19925;-60
2021/07/15 13:21:39;;;;;;;;;;;31.80;45.50;;;;;;5012932;28;19914;-60
2021/07/15 13:24:07;;;;;;;;;;;31.60;46.00;;;;;;5030721;28;20442;-60
2021/07/15 13:26:43;;;;;;;;;;;31.40;45.70;;;;;;5031381;28;19928;-60
2021/07/15 13:29:09;;;;;;;;;;;31.10;45.60;;;;;;5030261;28;19960;-60
2021/07/15 13:31:37;;;;;;;;;;;30.80;46.30;;;;;;5029143;28;19998;-60
2021/07/15 13:34:05;;;;;;;;;;;30.60;46.90;;;;;;5029061;28;19921;-60
2021/07/15 13:36:31;;;;;;;;;;;30.50;47.10;;;;;;5028401;28;19917;-60
2021/07/15 13:38:56;;;;;;;;;;;30.50;47.50;;;;;;5028151;28;19921;-60
2021/07/15 13:41:32;;;;;;;;;;;30.60;47.50;;;;;;5029004;28;20373;-60
2021/07/15 13:44:01;;;;;;;;;;;30.50;47.30;;;;;;5029038;28;20404;-60
2021/07/15 13:46:27;;;;;;;;;;;30.50;47.60;;;;;;5029025;28;20117;-61
2021/07/15 13:48:52;;;;;;;;;;;30.50;47.80;;;;;;5028970;28;19917;-60
2021/07/15 13:51:23;;;;;;;;;;;30.50;47.90;;;;;;5029109;28;19975;-60
2021/07/15 13:53:48;;;;;;;;;;;30.60;47.90;;;;;;5029198;28;19929;-60
2021/07/15 13:56:17;;;;;;;;;;;30.80;47.70;;;;;;5028051;28;20479;-60
2021/07/15 13:58:43;;;;;;;;;;;30.80;47.50;;;;;;5027896;28;19952;-60
2021/07/15 14:01:08;;;;;;;;;;;30.70;47.20;;;;;;5028660;28;19972;-60
2021/07/15 14:03:37;;;;;;;;;;;30.70;47.60;;;;;;5029132;28;20384;-60
2021/07/15 14:06:03;;;;;;;;;;;30.70;47.80;;;;;;5029768;28;19971;-60
2021/07/15 14:08:33;;;;;;;;;;;30.80;48.10;;;;;;5011628;28;19924;-60
2021/07/15 14:10:59;;;;;;;;;;;31.00;48.00;;;;;;5028701;28;19917;-60
2021/07/15 14:13:26;;;;;;;;;;;31.10;47.90;;;;;;5027464;28;19921;-60
2021/07/15 14:15:59;;;;;;;;;;;31.10;47.70;;;;;;5010206;28;19932;-60
2021/07/15 14:18:26;;;;;;;;;;;31.10;47.60;;;;;;5028831;28;20442;-60
2021/07/15 14:20:52;;;;;;;;;;;31.00;47.40;;;;;;5028960;28;19917;-60